sensor_id;sensor_type;location;lat;lon;timestamp;pressure;altitude;pressure_sealevel;temperature;humidity
56292;BME280;54008;53.606;9.462;2022-11-15T00:01:25;101200.00;;;4.56;100.00
56292;BME280;54008;53.606;9.462;2022-11-15T00:03:51;101197.34;;;4.48;100.00
56292;BME280;54008;53.606;9.462;2022-11-15T00:06:16;101189.97;;;4.56;100.00
56292;BME280;54008;53.606;9.462;2022-11-15T00:08:42;101185.16;;;4.58;100.00
56292;BME280;54008;53.606;9.462;2022-11-15T00:11:10;101195.28;;;4.65;100.00
56292;BME280;54008;53.606;9.462;2022-11-15T00:13:35;101192.94;;;4.61;100.00
56292;BME280;54008;53.606;9.462;2022-11-15T00:16:01;101194.25;;;4.66;100.00
56292;BME280;54008;53.606;9.462;2022-11-15T00:18:30;101195.53;;;4.70;100.00
56292;BME280;54008;53.606;9.462;2022-11-15T00:20:56;101196.00;;;4.73;100.00
56292;BME280;54008;53.606;9.462;2022-11-15T00:23:27;101193.38;;;4.80;100.00
56292;BME280;54008;53.606;9.462;2022-11-15T00:25:59;101195.81;;;4.90;100.00
56292;BME280;54008;53.606;9.462;2022-11-15T00:28:25;101196.28;;;4.93;100.00
56292;BME280;54008;53.606;9.462;2022-11-15T00:30:51;101191.84;;;4.92;100.00
56292;BME280;54008;53.606;9.462;2022-11-15T00:33:16;101192.22;;;4.89;100.00
56292;BME280;54008;53.606;9.462;2022-11-15T00:35:41;101194.94;;;4.89;100.00
56292;BME280;54008;53.606;9.462;2022-11-15T00:38:07;101193.81;;;4.98;100.00
56292;BME280;54008;53.606;9.462;2022-11-15T00:40:32;101193.44;;;5.01;100.00
56292;BME280;54008;53.606;9.462;2022-11-15T00:42:57;101200.16;;;5.05;100.00
56292;BME280;54008;53.606;9.462;2022-11-15T00:45:23;101201.84;;;5.06;100.00
56292;BME280;54008;53.606;9.462;2022-11-15T00:47:49;101203.94;;;5.04;100.00
56292;BME280;54008;53.606;9.462;2022-11-15T00:50:15;101209.84;;;5.08;100.00
56292;BME280;54008;53.606;9.462;2022-11-15T00:52:40;101203.94;;;5.04;100.00
56292;BME280;54008;53.606;9.462;2022-11-15T00:55:05;101201.84;;;5.06;100.00
56292;BME280;54008;53.606;9.462;2022-11-15T00:57:31;101194.03;;;4.97;100.00
56292;BME280;54008;53.606;9.462;2022-11-15T00:59:56;101190.63;;;4.95;100.00
56292;BME280;54008;53.606;9.462;2022-11-15T01:02:21;101197.78;;;4.81;100.00
56292;BME280;54008;53.606;9.462;2022-11-15T01:04:47;101195.91;;;4.67;100.00
56292;BME280;54008;53.606;9.462;2022-11-15T01:07:12;101193.66;;;4.70;100.00
56292;BME280;54008;53.606;9.462;2022-11-15T01:09:38;101192.28;;;4.74;100.00
56292;BME280;54008;53.606;9.462;2022-11-15T01:12:04;101188.53;;;4.60;100.00
56292;BME280;54008;53.606;9.462;2022-11-15T01:14:29;101201.28;;;4.60;100.00
56292;BME280;54008;53.606;9.462;2022-11-15T01:16:54;101197.44;;;4.54;100.00
56292;BME280;54008;53.606;9.462;2022-11-15T01:19:20;101196.41;;;4.55;100.00
56292;BME280;54008;53.606;9.462;2022-11-15T01:21:45;101201.94;;;4.47;100.00
56292;BME280;54008;53.606;9.462;2022-11-15T01:24:13;101196.41;;;4.41;100.00
56292;BME280;54008;53.606;9.462;2022-11-15T01:26:38;101196.81;;;4.37;100.00
56292;BME280;54008;53.606;9.462;2022-11-15T01:29:04;101203.81;;;4.32;100.00
56292;BME280;54008;53.606;9.462;2022-11-15T01:31:29;101204.84;;;4.31;100.00
56292;BME280;54008;53.606;9.462;2022-11-15T01:33:54;101195.03;;;4.30;100.00
56292;BME280;54008;53.606;9.462;2022-11-15T01:36:21;101195.88;;;4.30;100.00
56292;BME280;54008;53.606;9.462;2022-11-15T01:38:47;101188.94;;;4.28;100.00
56292;BME280;54008;53.606;9.462;2022-11-15T01:41:23;101195.84;;;4.16;100.00
56292;BME280;54008;53.606;9.462;2022-11-15T01:43:52;101191.84;;;4.11;100.00
56292;BME280;54008;53.606;9.462;2022-11-15T01:46:23;101189.38;;;4.17;100.00
56292;BME280;54008;53.606;9.462;2022-11-15T01:48:51;101197.34;;;4.03;100.00
56292;BME280;54008;53.606;9.462;2022-11-15T01:51:19;101192.94;;;4.02;100.00
56292;BME280;54008;53.606;9.462;2022-11-15T01:53:47;101188.34;;;4.03;100.00
56292;BME280;54008;53.606;9.462;2022-11-15T01:56:18;101190.22;;;4.02;100.00
56292;BME280;54008;53.606;9.462;2022-11-15T01:58:44;101194.22;;;3.92;100.00
56292;BME280;54008;53.606;9.462;2022-11-15T02:01:11;101194.13;;;3.85;100.00
56292;BME280;54008;53.606;9.462;2022-11-15T02:03:46;101197.22;;;3.82;100.00
56292;BME280;54008;53.606;9.462;2022-11-15T02:06:14;101199.72;;;3.83;100.00
56292;BME280;54008;53.606;9.462;2022-11-15T02:08:40;101198.78;;;3.76;100.00
56292;BME280;54008;53.606;9.462;2022-11-15T02:11:08;101195.91;;;3.78;100.00
56292;BME280;54008;53.606;9.462;2022-11-15T02:13:35;101197.94;;;3.76;100.00
56292;BME280;54008;53.606;9.462;2022-11-15T02:16:17;101190.53;;;3.70;100.00
56292;BME280;54008;53.606;9.462;2022-11-15T02:21:48;101182.16;;;3.56;100.00
56292;BME280;54008;53.606;9.462;2022-11-15T02:32:58;101177.22;;;3.60;100.00
56292;BME280;54008;53.606;9.462;2022-11-15T02:35:43;101175.06;;;3.55;100.00
56292;BME280;54008;53.606;9.462;2022-11-15T02:38:27;101171.72;;;3.68;100.00
56292;BME280;54008;53.606;9.462;2022-11-15T02:41:13;101165.09;;;3.71;100.00
56292;BME280;54008;53.606;9.462;2022-11-15T02:43:46;101159.47;;;3.72;100.00
56292;BME280;54008;53.606;9.462;2022-11-15T02:46:35;101154.69;;;3.59;100.00
56292;BME280;54008;53.606;9.462;2022-11-15T02:49:21;101156.72;;;3.57;100.00
56292;BME280;54008;53.606;9.462;2022-11-15T02:51:49;101161.78;;;3.60;100.00
56292;BME280;54008;53.606;9.462;2022-11-15T02:54:24;101156.19;;;3.39;100.00
56292;BME280;54008;53.606;9.462;2022-11-15T02:56:53;101154.53;;;3.38;100.00
56292;BME280;54008;53.606;9.462;2022-11-15T02:59:56;101168.91;;;3.38;100.00
56292;BME280;54008;53.606;9.462;2022-11-15T03:02:32;101167.59;;;3.34;100.00
56292;BME280;54008;53.606;9.462;2022-11-15T03:05:20;101167.19;;;3.23;100.00
56292;BME280;54008;53.606;9.462;2022-11-15T03:10:55;101167.97;;;3.08;100.00
56292;BME280;54008;53.606;9.462;2022-11-15T03:13:36;101167.00;;;3.01;100.00
56292;BME280;54008;53.606;9.462;2022-11-15T03:16:19;101176.94;;;3.09;100.00
56292;BME280;54008;53.606;9.462;2022-11-15T03:18:52;101173.03;;;3.11;100.00
56292;BME280;54008;53.606;9.462;2022-11-15T03:21:21;101169.22;;;3.21;100.00
56292;BME280;54008;53.606;9.462;2022-11-15T03:23:48;101172.84;;;3.13;100.00
56292;BME280;54008;53.606;9.462;2022-11-15T03:26:16;101166.28;;;3.07;100.00
56292;BME280;54008;53.606;9.462;2022-11-15T03:28:51;101165.88;;;3.19;100.00
56292;BME280;54008;53.606;9.462;2022-11-15T03:31:19;101162.66;;;3.15;100.00
56292;BME280;54008;53.606;9.462;2022-11-15T03:34:08;101174.69;;;3.12;100.00
56292;BME280;54008;53.606;9.462;2022-11-15T03:36:36;101171.63;;;3.15;100.00
56292;BME280;54008;53.606;9.462;2022-11-15T03:39:05;101173.88;;;3.12;100.00
56292;BME280;54008;53.606;9.462;2022-11-15T03:41:39;101173.31;;;3.16;100.00
56292;BME280;54008;53.606;9.462;2022-11-15T03:47:07;101165.72;;;3.35;100.00
56292;BME280;54008;53.606;9.462;2022-11-15T03:49:36;101167.41;;;3.36;100.00
56292;BME280;54008;53.606;9.462;2022-11-15T03:52:04;101164.34;;;3.39;100.00
56292;BME280;54008;53.606;9.462;2022-11-15T03:54:30;101158.00;;;3.47;100.00
56292;BME280;54008;53.606;9.462;2022-11-15T03:56:56;101150.22;;;3.67;100.00
56292;BME280;54008;53.606;9.462;2022-11-15T03:59:21;101149.09;;;3.76;100.00
56292;BME280;54008;53.606;9.462;2022-11-15T04:01:47;101149.09;;;3.76;100.00
56292;BME280;54008;53.606;9.462;2022-11-15T04:04:12;101144.88;;;3.88;100.00
56292;BME280;54008;53.606;9.462;2022-11-15T04:06:37;101147.06;;;3.78;100.00
56292;BME280;54008;53.606;9.462;2022-11-15T04:09:03;101157.50;;;3.81;100.00
56292;BME280;54008;53.606;9.462;2022-11-15T04:11:28;101164.09;;;4.01;100.00
56292;BME280;54008;53.606;9.462;2022-11-15T04:13:53;101166.72;;;4.09;100.00
56292;BME280;54008;53.606;9.462;2022-11-15T04:16:19;101159.25;;;4.11;100.00
56292;BME280;54008;53.606;9.462;2022-11-15T04:18:44;101157.47;;;4.19;100.00
56292;BME280;54008;53.606;9.462;2022-11-15T04:21:09;101155.97;;;4.16;100.00
56292;BME280;54008;53.606;9.462;2022-11-15T04:23:53;101152.69;;;4.21;100.00
56292;BME280;54008;53.606;9.462;2022-11-15T04:26:37;101145.22;;;4.23;100.00
56292;BME280;54008;53.606;9.462;2022-11-15T04:29:03;101145.94;;;4.31;100.00
56292;BME280;54008;53.606;9.462;2022-11-15T04:31:47;101146.66;;;4.40;100.00
56292;BME280;54008;53.606;9.462;2022-11-15T04:34:12;101148.84;;;4.45;100.00
56292;BME280;54008;53.606;9.462;2022-11-15T04:36:37;101147.81;;;4.46;100.00
56292;BME280;54008;53.606;9.462;2022-11-15T04:39:21;101145.94;;;4.46;100.00
56292;BME280;54008;53.606;9.462;2022-11-15T04:41:46;101140.13;;;4.49;100.00
56292;BME280;54008;53.606;9.462;2022-11-15T04:44:11;101145.09;;;4.46;100.00
56292;BME280;54008;53.606;9.462;2022-11-15T04:46:37;101146.66;;;4.40;100.00
56292;BME280;54008;53.606;9.462;2022-11-15T04:49:02;101140.22;;;4.41;100.00
56292;BME280;54008;53.606;9.462;2022-11-15T04:51:27;101139.19;;;4.42;100.00
56292;BME280;54008;53.606;9.462;2022-11-15T04:53:53;101129.41;;;4.48;100.00
56292;BME280;54008;53.606;9.462;2022-11-15T04:56:18;101126.41;;;4.57;100.00
56292;BME280;54008;53.606;9.462;2022-11-15T04:58:43;101121.19;;;4.56;100.00
56292;BME280;54008;53.606;9.462;2022-11-15T05:01:13;101113.50;;;4.59;100.00
56292;BME280;54008;53.606;9.462;2022-11-15T05:03:40;101132.78;;;4.65;100.00
56292;BME280;54008;53.606;9.462;2022-11-15T05:06:23;101128.66;;;4.69;100.00
56292;BME280;54008;53.606;9.462;2022-11-15T05:08:49;101129.94;;;4.73;100.00
56292;BME280;54008;53.606;9.462;2022-11-15T05:11:14;101127.44;;;4.71;100.00
56292;BME280;54008;53.606;9.462;2022-11-15T05:13:39;101120.75;;;4.74;100.00
56292;BME280;54008;53.606;9.462;2022-11-15T05:16:05;101120.38;;;4.77;100.00
56292;BME280;54008;53.606;9.462;2022-11-15T05:18:30;101116.59;;;4.78;100.00
56292;BME280;54008;53.606;9.462;2022-11-15T05:20:55;101112.50;;;4.82;100.00
56292;BME280;54008;53.606;9.462;2022-11-15T05:23:21;101112.88;;;4.79;100.00
56292;BME280;54008;53.606;9.462;2022-11-15T05:25:46;101117.72;;;4.83;100.00
56292;BME280;54008;53.606;9.462;2022-11-15T05:28:11;101119.41;;;4.84;100.00
56292;BME280;54008;53.606;9.462;2022-11-15T05:30:37;101117.59;;;4.92;100.00
56292;BME280;54008;53.606;9.462;2022-11-15T05:33:03;101119.09;;;4.94;100.00
56292;BME280;54008;53.606;9.462;2022-11-15T05:35:39;101115.59;;;5.00;100.00
56292;BME280;54008;53.606;9.462;2022-11-15T05:38:07;101113.31;;;5.04;100.00
56292;BME280;54008;53.606;9.462;2022-11-15T05:40:32;101114.81;;;5.06;100.00
56292;BME280;54008;53.606;9.462;2022-11-15T05:43:01;101110.88;;;5.09;100.00
56292;BME280;54008;53.606;9.462;2022-11-15T05:45:28;101106.91;;;5.11;100.00
56292;BME280;54008;53.606;9.462;2022-11-15T05:47:55;101110.31;;;5.14;100.00
56292;BME280;54008;53.606;9.462;2022-11-15T05:50:20;101107.19;;;5.17;100.00
56292;BME280;54008;53.606;9.462;2022-11-15T05:52:46;101104.09;;;5.20;100.00
56292;BME280;54008;53.606;9.462;2022-11-15T05:55:12;101108.72;;;5.26;100.00
56292;BME280;54008;53.606;9.462;2022-11-15T05:57:37;101102.06;;;5.28;100.00
56292;BME280;54008;53.606;9.462;2022-11-15T06:00:04;101101.84;;;5.30;100.00
56292;BME280;54008;53.606;9.462;2022-11-15T06:02:29;101100.47;;;5.34;100.00
56292;BME280;54008;53.606;9.462;2022-11-15T06:04:54;101101.91;;;5.37;100.00
56292;BME280;54008;53.606;9.462;2022-11-15T06:07:20;101106.78;;;5.41;100.00
56292;BME280;54008;53.606;9.462;2022-11-15T06:09:45;101100.31;;;5.42;100.00
56292;BME280;54008;53.606;9.462;2022-11-15T06:12:10;101104.50;;;5.45;100.00
56292;BME280;54008;53.606;9.462;2022-11-15T06:14:35;101104.78;;;5.50;100.00
56292;BME280;54008;53.606;9.462;2022-11-15T06:17:01;101106.69;;;5.56;100.00
56292;BME280;54008;53.606;9.462;2022-11-15T06:19:26;101105.25;;;5.60;100.00
56292;BME280;54008;53.606;9.462;2022-11-15T06:21:52;101104.00;;;5.63;100.00
56292;BME280;54008;53.606;9.462;2022-11-15T06:24:17;101111.59;;;5.67;100.00
56292;BME280;54008;53.606;9.462;2022-11-15T06:26:42;101104.06;;;5.69;100.00
56292;BME280;54008;53.606;9.462;2022-11-15T06:29:07;101098.25;;;5.72;100.00
56292;BME280;54008;53.606;9.462;2022-11-15T06:31:34;101096.59;;;5.78;100.00
56292;BME280;54008;53.606;9.462;2022-11-15T06:33:59;101097.47;;;5.85;100.00
56292;BME280;54008;53.606;9.462;2022-11-15T06:36:24;101104.59;;;5.86;100.00
56292;BME280;54008;53.606;9.462;2022-11-15T06:38:50;101104.00;;;5.91;100.00
56292;BME280;54008;53.606;9.462;2022-11-15T06:41:15;101114.34;;;5.95;100.00
56292;BME280;54008;53.606;9.462;2022-11-15T06:43:42;101111.44;;;6.03;100.00
56292;BME280;54008;53.606;9.462;2022-11-15T06:46:07;101106.00;;;6.03;100.00
56292;BME280;54008;53.606;9.462;2022-11-15T06:48:33;101104.31;;;6.02;100.00
56292;BME280;54008;53.606;9.462;2022-11-15T06:51:00;101099.72;;;6.03;100.00
56292;BME280;54008;53.606;9.462;2022-11-15T06:53:25;101101.22;;;6.05;100.00
56292;BME280;54008;53.606;9.462;2022-11-15T06:55:51;101111.06;;;6.06;100.00
56292;BME280;54008;53.606;9.462;2022-11-15T06:58:17;101108.13;;;6.08;100.00
56292;BME280;54008;53.606;9.462;2022-11-15T07:00:42;101105.22;;;6.10;100.00
56292;BME280;54008;53.606;9.462;2022-11-15T07:03:08;101107.72;;;6.11;100.00
56292;BME280;54008;53.606;9.462;2022-11-15T07:05:34;101103.75;;;6.14;100.00
56292;BME280;54008;53.606;9.462;2022-11-15T07:08:00;101106.03;;;6.10;100.00
56292;BME280;54008;53.606;9.462;2022-11-15T07:10:26;101097.66;;;6.12;100.00
56292;BME280;54008;53.606;9.462;2022-11-15T07:12:53;101105.66;;;6.20;100.00
56292;BME280;54008;53.606;9.462;2022-11-15T07:15:20;101112.19;;;6.25;100.00
56292;BME280;54008;53.606;9.462;2022-11-15T07:17:45;101106.34;;;6.28;100.00
56292;BME280;54008;53.606;9.462;2022-11-15T07:20:11;101114.97;;;6.32;100.00
56292;BME280;54008;53.606;9.462;2022-11-15T07:22:38;101111.41;;;6.31;100.00
56292;BME280;54008;53.606;9.462;2022-11-15T07:25:04;101110.78;;;6.36;100.00
56292;BME280;54008;53.606;9.462;2022-11-15T07:27:29;101115.19;;;6.37;100.00
56292;BME280;54008;53.606;9.462;2022-11-15T07:29:54;101101.56;;;6.37;100.00
56292;BME280;54008;53.606;9.462;2022-11-15T07:32:19;101102.22;;;6.39;100.00
56292;BME280;54008;53.606;9.462;2022-11-15T07:34:45;101102.22;;;6.39;100.00
56292;BME280;54008;53.606;9.462;2022-11-15T07:37:11;101102.22;;;6.39;100.00
56292;BME280;54008;53.606;9.462;2022-11-15T07:39:37;101104.50;;;6.42;100.00
56292;BME280;54008;53.606;9.462;2022-11-15T07:42:02;101106.63;;;6.40;100.00
56292;BME280;54008;53.606;9.462;2022-11-15T07:44:46;101102.41;;;6.38;100.00
56292;BME280;54008;53.606;9.462;2022-11-15T07:47:12;101104.94;;;6.39;100.00
56292;BME280;54008;53.606;9.462;2022-11-15T07:49:37;101096.75;;;6.39;100.00
56292;BME280;54008;53.606;9.462;2022-11-15T07:52:03;101106.22;;;6.43;100.00
56292;BME280;54008;53.606;9.462;2022-11-15T07:54:28;101106.84;;;6.45;100.00
56292;BME280;54008;53.606;9.462;2022-11-15T07:56:53;101103.69;;;6.48;100.00
56292;BME280;54008;53.606;9.462;2022-11-15T07:59:18;101100.56;;;6.51;100.00
56292;BME280;54008;53.606;9.462;2022-11-15T08:01:44;101101.63;;;6.57;100.00
56292;BME280;54008;53.606;9.462;2022-11-15T08:04:10;101102.50;;;6.58;100.00
56292;BME280;54008;53.606;9.462;2022-11-15T08:06:36;101104.19;;;6.65;100.00
56292;BME280;54008;53.606;9.462;2022-11-15T08:09:01;101095.00;;;6.73;100.00
56292;BME280;54008;53.606;9.462;2022-11-15T08:11:26;101102.34;;;6.79;100.00
56292;BME280;54008;53.606;9.462;2022-11-15T08:13:52;101099.00;;;6.84;100.00
56292;BME280;54008;53.606;9.462;2022-11-15T08:16:17;101091.47;;;6.92;100.00
56292;BME280;54008;53.606;9.462;2022-11-15T08:18:42;101093.78;;;6.95;100.00
56292;BME280;54008;53.606;9.462;2022-11-15T08:21:09;101094.66;;;7.02;100.00
56292;BME280;54008;53.606;9.462;2022-11-15T08:23:34;101091.28;;;7.07;100.00
56292;BME280;54008;53.606;9.462;2022-11-15T08:26:01;101088.75;;;7.12;100.00
56292;BME280;54008;53.606;9.462;2022-11-15T08:28:28;101087.09;;;7.18;100.00
56292;BME280;54008;53.606;9.462;2022-11-15T08:30:53;101081.25;;;7.21;100.00
56292;BME280;54008;53.606;9.462;2022-11-15T08:33:18;101085.00;;;7.20;100.00
56292;BME280;54008;53.606;9.462;2022-11-15T08:35:44;101082.50;;;7.25;100.00
56292;BME280;54008;53.606;9.462;2022-11-15T08:38:09;101075.34;;;7.31;100.00
56292;BME280;54008;53.606;9.462;2022-11-15T08:40:35;101086.47;;;7.29;100.00
56292;BME280;54008;53.606;9.462;2022-11-15T08:43:01;101087.53;;;7.35;100.00
56292;BME280;54008;53.606;9.462;2022-11-15T08:45:28;101085.88;;;7.40;100.00
56292;BME280;54008;53.606;9.462;2022-11-15T08:47:54;101089.63;;;7.39;100.00
56292;BME280;54008;53.606;9.462;2022-11-15T08:50:19;101084.56;;;7.43;100.00
56292;BME280;54008;53.606;9.462;2022-11-15T08:52:44;101088.78;;;7.45;100.00
56292;BME280;54008;53.606;9.462;2022-11-15T08:55:09;101095.91;;;7.46;100.00
56292;BME280;54008;53.606;9.462;2022-11-15T08:57:35;101093.41;;;7.51;100.00
56292;BME280;54008;53.606;9.462;2022-11-15T09:00:00;101086.25;;;7.50;100.00
56292;BME280;54008;53.606;9.462;2022-11-15T09:02:25;101095.09;;;7.52;100.00
56292;BME280;54008;53.606;9.462;2022-11-15T09:04:51;101095.28;;;7.58;100.00
56292;BME280;54008;53.606;9.462;2022-11-15T09:07:16;101106.19;;;7.58;100.00
56292;BME280;54008;53.606;9.462;2022-11-15T09:09:41;101106.44;;;7.56;100.00
56292;BME280;54008;53.606;9.462;2022-11-15T09:12:07;101105.59;;;7.62;100.00
56292;BME280;54008;53.606;9.462;2022-11-15T09:14:33;101104.31;;;7.71;100.00
56292;BME280;54008;53.606;9.462;2022-11-15T09:16:58;101100.09;;;7.82;100.00
56292;BME280;54008;53.606;9.462;2022-11-15T09:19:24;101106.41;;;7.96;100.00
56292;BME280;54008;53.606;9.462;2022-11-15T09:21:49;101111.22;;;8.00;100.00
56292;BME280;54008;53.606;9.462;2022-11-15T09:24:15;101115.38;;;8.16;100.00
56292;BME280;54008;53.606;9.462;2022-11-15T09:26:40;101107.16;;;8.23;100.00
56292;BME280;54008;53.606;9.462;2022-11-15T09:29:06;101106.53;;;8.21;100.00
56292;BME280;54008;53.606;9.462;2022-11-15T09:31:31;101116.44;;;8.22;100.00
56292;BME280;54008;53.606;9.462;2022-11-15T09:33:57;101118.94;;;8.23;100.00
56292;BME280;54008;53.606;9.462;2022-11-15T09:36:22;101113.88;;;8.27;100.00
56292;BME280;54008;53.606;9.462;2022-11-15T09:38:48;101118.28;;;8.28;100.00
56292;BME280;54008;53.606;9.462;2022-11-15T09:48:58;101136.78;;;8.39;100.00
56292;BME280;54008;53.606;9.462;2022-11-15T09:51:30;101138.25;;;8.42;100.00
56292;BME280;54008;53.606;9.462;2022-11-15T09:54:02;101131.53;;;8.44;100.00
56292;BME280;54008;53.606;9.462;2022-11-15T09:56:35;101129.81;;;8.43;100.00
56292;BME280;54008;53.606;9.462;2022-11-15T10:01:48;101134.47;;;8.43;100.00
56292;BME280;54008;53.606;9.462;2022-11-15T10:04:16;101126.25;;;8.49;100.00
56292;BME280;54008;53.606;9.462;2022-11-15T10:06:46;101130.66;;;8.44;100.00
56292;BME280;54008;53.606;9.462;2022-11-15T10:09:24;101131.06;;;8.47;100.00
56292;BME280;54008;53.606;9.462;2022-11-15T10:11:51;101116.78;;;8.45;100.00
56292;BME280;54008;53.606;9.462;2022-11-15T10:14:43;101130.63;;;8.50;100.00
56292;BME280;54008;53.606;9.462;2022-11-15T10:20:10;101135.69;;;8.54;100.00
56292;BME280;54008;53.606;9.462;2022-11-15T10:22:50;101122.41;;;8.57;100.00
56292;BME280;54008;53.606;9.462;2022-11-15T10:25:35;101129.56;;;8.58;100.00
56292;BME280;54008;53.606;9.462;2022-11-15T10:30:35;101113.34;;;8.63;100.00
56292;BME280;54008;53.606;9.462;2022-11-15T10:35:36;101120.72;;;8.63;100.00
56292;BME280;54008;53.606;9.462;2022-11-15T10:38:08;101115.06;;;8.58;100.00
56292;BME280;54008;53.606;9.462;2022-11-15T10:40:34;101103.91;;;8.59;100.00
56292;BME280;54008;53.606;9.462;2022-11-15T10:43:14;101110.41;;;8.58;100.00
56292;BME280;54008;53.606;9.462;2022-11-15T10:45:42;101106.66;;;8.59;100.00
56292;BME280;54008;53.606;9.462;2022-11-15T10:50:40;101105.78;;;8.59;100.00
56292;BME280;54008;53.606;9.462;2022-11-15T10:53:17;101101.38;;;8.58;100.00
56292;BME280;54008;53.606;9.462;2022-11-15T10:55:47;101099.44;;;8.65;100.00
56292;BME280;54008;53.606;9.462;2022-11-15T11:00:47;101099.13;;;8.86;100.00
56292;BME280;54008;53.606;9.462;2022-11-15T11:03:33;101092.59;;;8.87;100.00
56292;BME280;54008;53.606;9.462;2022-11-15T11:06:15;101094.72;;;8.85;100.00
56292;BME280;54008;53.606;9.462;2022-11-15T11:08:54;101095.34;;;8.87;100.00
56292;BME280;54008;53.606;9.462;2022-11-15T11:11:19;101094.47;;;8.93;100.00
56292;BME280;54008;53.606;9.462;2022-11-15T11:13:44;101094.88;;;8.97;100.00
56292;BME280;54008;53.606;9.462;2022-11-15T11:33:36;101081.16;;;9.54;100.00
56292;BME280;54008;53.606;9.462;2022-11-15T11:44:33;101085.03;;;9.71;100.00
56292;BME280;54008;53.606;9.462;2022-11-15T11:47:23;101088.31;;;9.80;100.00
56292;BME280;54008;53.606;9.462;2022-11-15T11:49:51;101092.03;;;9.85;100.00
56292;BME280;54008;53.606;9.462;2022-11-15T11:52:23;101099.81;;;9.88;100.00
56292;BME280;54008;53.606;9.462;2022-11-15T11:55:01;101098.28;;;9.92;100.00
56292;BME280;54008;53.606;9.462;2022-11-15T12:00:22;101102.34;;;9.90;100.00
56292;BME280;54008;53.606;9.462;2022-11-15T12:03:04;101101.66;;;9.94;100.00
56292;BME280;54008;53.606;9.462;2022-11-15T12:05:37;101090.06;;;9.92;100.00
56292;BME280;54008;53.606;9.462;2022-11-15T12:08:22;101095.88;;;10.03;100.00
56292;BME280;54008;53.606;9.462;2022-11-15T12:11:01;101097.72;;;10.09;100.00
56292;BME280;54008;53.606;9.462;2022-11-15T12:13:30;101097.47;;;10.10;100.00
56292;BME280;54008;53.606;9.462;2022-11-15T12:16:05;101099.97;;;10.12;100.00
56292;BME280;54008;53.606;9.462;2022-11-15T12:18:32;101097.41;;;10.17;100.00
56292;BME280;54008;53.606;9.462;2022-11-15T12:21:06;101109.59;;;10.21;100.00
56292;BME280;54008;53.606;9.462;2022-11-15T12:23:41;101096.97;;;10.20;100.00
56292;BME280;54008;53.606;9.462;2022-11-15T12:26:45;101107.75;;;10.15;100.00
56292;BME280;54008;53.606;9.462;2022-11-15T12:29:23;101105.84;;;10.15;100.00
56292;BME280;54008;53.606;9.462;2022-11-15T12:31:52;101115.06;;;10.21;100.00
56292;BME280;54008;53.606;9.462;2022-11-15T12:36:48;101103.97;;;10.34;100.00
56292;BME280;54008;53.606;9.462;2022-11-15T12:39:15;101091.25;;;10.40;100.00
56292;BME280;54008;53.606;9.462;2022-11-15T12:47:21;101087.22;;;10.61;100.00
56292;BME280;54008;53.606;9.462;2022-11-15T12:49:48;101088.13;;;10.55;100.00
56292;BME280;54008;53.606;9.462;2022-11-15T12:52:13;101077.41;;;10.53;100.00
56292;BME280;54008;53.606;9.462;2022-11-15T13:02:23;101079.50;;;10.51;100.00
56292;BME280;54008;53.606;9.462;2022-11-15T13:04:50;101079.28;;;10.53;100.00
56292;BME280;54008;53.606;9.462;2022-11-15T13:10:03;101073.63;;;10.66;100.00
56292;BME280;54008;53.606;9.462;2022-11-15T13:17:43;101065.53;;;10.71;100.00
56292;BME280;54008;53.606;9.462;2022-11-15T13:22:43;101067.91;;;10.67;100.00
56292;BME280;54008;53.606;9.462;2022-11-15T13:28:09;101055.63;;;10.70;100.00
56292;BME280;54008;53.606;9.462;2022-11-15T13:30:36;101052.41;;;10.73;100.00
56292;BME280;54008;53.606;9.462;2022-11-15T13:33:13;101049.09;;;10.83;100.00
56292;BME280;54008;53.606;9.462;2022-11-15T13:35:41;101051.84;;;10.83;100.00
56292;BME280;54008;53.606;9.462;2022-11-15T13:38:18;101054.84;;;10.81;100.00
56292;BME280;54008;53.606;9.462;2022-11-15T13:40:44;101064.16;;;10.80;100.00
56292;BME280;54008;53.606;9.462;2022-11-15T13:48:37;101033.34;;;10.78;100.00
56292;BME280;54008;53.606;9.462;2022-11-15T13:51:07;101035.38;;;10.83;100.00
56292;BME280;54008;53.606;9.462;2022-11-15T13:53:36;101030.75;;;10.83;100.00
56292;BME280;54008;53.606;9.462;2022-11-15T13:56:04;101032.16;;;10.86;100.00
56292;BME280;54008;53.606;9.462;2022-11-15T13:58:30;101031.94;;;10.87;100.00
56292;BME280;54008;53.606;9.462;2022-11-15T14:01:00;101027.50;;;10.86;100.00
56292;BME280;54008;53.606;9.462;2022-11-15T14:03:28;101018.69;;;10.84;100.00
56292;BME280;54008;53.606;9.462;2022-11-15T14:06:11;101016.78;;;10.85;100.00
56292;BME280;54008;53.606;9.462;2022-11-15T14:08:42;101017.69;;;10.79;100.00
56292;BME280;54008;53.606;9.462;2022-11-15T14:11:18;101014.84;;;10.74;100.00
56292;BME280;54008;53.606;9.462;2022-11-15T14:16:57;101013.50;;;10.64;100.00
56292;BME280;54008;53.606;9.462;2022-11-15T14:22:14;101016.78;;;10.55;100.00
56292;BME280;54008;53.606;9.462;2022-11-15T14:24:42;101022.75;;;10.52;100.00
56292;BME280;54008;53.606;9.462;2022-11-15T14:27:27;101009.03;;;10.52;100.00
56292;BME280;54008;53.606;9.462;2022-11-15T14:29:53;101011.03;;;10.44;100.00
56292;BME280;54008;53.606;9.462;2022-11-15T14:32:22;101006.63;;;10.43;100.00
56292;BME280;54008;53.606;9.462;2022-11-15T14:34:59;101004.78;;;10.37;100.00
56292;BME280;54008;53.606;9.462;2022-11-15T14:37:30;101000.25;;;10.31;100.00
56292;BME280;54008;53.606;9.462;2022-11-15T14:40:01;101004.03;;;10.30;100.00
56292;BME280;54008;53.606;9.462;2022-11-15T14:42:26;101018.81;;;10.29;100.00
56292;BME280;54008;53.606;9.462;2022-11-15T14:44:52;101015.50;;;10.27;100.00
56292;BME280;54008;53.606;9.462;2022-11-15T14:47:18;101014.88;;;10.25;100.00